Time;durP1;ratioP1;P1;durP2;ratioP2;P2;SDS_P1;SDS_P2;PMS_P1;PMS_P2;Temp;Humidity;BMP_temperature;BMP_pressure;BME280_temperature;BME280_humidity;BME280_pressure;Samples;Min_cycle;Max_cycle;Signal;HPM_P1;HPM_P2
2021/12/25 00:01:02;;;;;;;21.67;15.70;;;;;;;5.36;100.00;98892.16;6156843;23;20447;-92
2021/12/25 00:03:27;;;;;;;17.73;12.77;;;;;;;5.27;100.00;98897.47;6157154;23;20021;-92
2021/12/25 00:05:53;;;;;;;25.65;18.52;;;;;;;5.18;100.00;98900.03;6183088;23;20474;-93
2021/12/25 00:08:24;;;;;;;38.58;26.92;;;;;;;5.09;100.00;98897.13;6157255;23;20024;-92
2021/12/25 00:10:49;;;;;;;41.95;28.52;;;;;;;4.96;100.00;98893.50;6156860;23;20482;-81
2021/12/25 00:13:16;;;;;;;48.47;33.40;;;;;;;4.86;100.00;98895.28;6156362;23;20001;-82
2021/12/25 00:15:42;;;;;;;47.63;31.45;;;;;;;4.77;100.00;98891.56;6156051;23;20024;-82
2021/12/25 00:18:08;;;;;;;31.05;22.48;;;;;;;4.77;100.00;98891.56;6155717;23;20021;-82
2021/12/25 00:20:34;;;;;;;33.90;23.70;;;;;;;4.70;100.00;98903.47;6156469;23;20051;-82
2021/12/25 00:23:00;;;;;;;23.92;17.38;;;;;;;4.65;100.00;98901.25;6180687;23;20025;-82
2021/12/25 00:25:27;;;;;;;23.05;16.45;;;;;;;4.59;100.00;98889.19;6156494;23;20012;-81
2021/12/25 00:30:44;;;;;;;18.30;14.43;;;;;;;4.57;100.00;98873.13;6156091;23;20017;-81
2021/12/25 00:33:31;;;;;;;15.13;11.80;;;;;;;4.59;100.00;98886.44;6180719;23;20123;-81
2021/12/25 00:35:53;;;;;;;16.02;11.63;;;;;;;4.60;100.00;98888.78;6182174;23;20398;-82
2021/12/25 00:38:19;;;;;;;13.40;11.20;;;;;;;4.68;100.00;98895.69;6156189;23;20047;-82
2021/12/25 00:40:44;;;;;;;15.43;11.70;;;;;;;4.68;100.00;98894.91;6182938;23;20009;-82
2021/12/25 00:43:10;;;;;;;14.13;11.23;;;;;;;4.62;100.00;98883.63;6131489;23;20017;-82
2021/12/25 00:45:35;;;;;;;15.50;12.43;;;;;;;4.55;100.00;98878.28;6182785;23;20084;-82
2021/12/25 00:48:01;;;;;;;15.63;12.25;;;;;;;4.58;100.00;98880.19;6156649;23;20036;-92
2021/12/25 00:50:26;;;;;;;15.50;12.40;;;;;;;4.51;100.00;98880.34;6132112;23;20131;-91
2021/12/25 00:52:52;;;;;;;14.23;11.23;;;;;;;4.50;100.00;98889.75;6156439;23;20021;-91
2021/12/25 00:55:18;;;;;;;13.90;11.05;;;;;;;4.49;100.00;98895.69;6156529;23;20025;-93
2021/12/25 00:57:44;;;;;;;14.02;11.55;;;;;;;4.54;100.00;98898.72;6156651;23;20088;-93
2021/12/25 01:00:12;;;;;;;13.48;10.15;;;;;;;4.52;100.00;98900.34;6183010;23;20009;-93
2021/12/25 01:02:40;;;;;;;13.52;10.90;;;;;;;4.46;100.00;98904.75;6157149;23;20432;-92
2021/12/25 01:05:07;;;;;;;18.50;13.77;;;;;;;4.57;100.00;98911.59;6132246;23;20352;-92
2021/12/25 01:07:33;;;;;;;18.27;13.93;;;;;;;4.55;100.00;98902.22;6157339;23;20097;-81
2021/12/25 01:10:02;;;;;;;16.90;12.02;;;;;;;4.53;100.00;98912.88;6132608;23;20021;-81
2021/12/25 01:12:33;;;;;;;13.90;10.70;;;;;;;4.34;100.00;98897.94;6156133;23;20024;-81
2021/12/25 01:15:01;;;;;;;13.68;10.60;;;;;;;4.36;100.00;98914.00;6181769;23;20534;-81
2021/12/25 01:48:37;;;;;;;11.95;8.70;;;;;;;3.90;100.00;98895.66;6139572;23;20023;-92
2021/12/25 01:51:03;;;;;;;11.65;8.77;;;;;;;3.85;100.00;98896.13;6157402;23;20451;-93
2021/12/25 01:53:28;;;;;;;11.07;8.52;;;;;;;3.87;100.00;98915.69;6132627;23;20028;-92
2021/12/25 01:55:54;;;;;;;10.00;7.90;;;;;;;3.86;100.00;98916.88;6133061;23;20020;-91
2021/12/25 01:58:20;;;;;;;11.10;8.80;;;;;;;3.84;100.00;98883.63;6132738;23;20241;-91
2021/12/25 02:03:36;;;;;;;10.18;8.65;;;;;;;3.80;100.00;98899.38;6164821;23;20152;-84
2021/12/25 02:06:04;;;;;;;11.68;8.93;;;;;;;3.81;100.00;98906.38;6156395;23;20021;-85
2021/12/25 02:08:33;;;;;;;11.98;8.93;;;;;;;3.79;100.00;98900.56;6156379;23;20108;-84
2021/12/25 02:11:00;;;;;;;12.23;9.45;;;;;;;3.82;100.00;98907.94;6157453;23;20021;-84
2021/12/25 02:13:26;;;;;;;12.95;9.55;;;;;;;3.78;100.00;98890.78;6156383;23;20039;-85
2021/12/25 02:15:54;;;;;;;11.35;8.73;;;;;;;3.75;100.00;98895.13;6131588;23;20489;-85
2021/12/25 02:18:43;;;;;;;11.52;8.85;;;;;;;3.67;100.00;98889.00;6107427;23;20004;-85
2021/12/25 02:21:18;;;;;;;14.75;9.82;;;;;;;3.60;100.00;98888.34;6136696;23;20013;-85
2021/12/25 02:23:45;;;;;;;12.15;9.25;;;;;;;3.61;100.00;98892.63;6156367;23;20017;-84
2021/12/25 02:26:10;;;;;;;11.70;9.35;;;;;;;3.66;100.00;98892.94;6131979;23;20013;-85
2021/12/25 02:28:36;;;;;;;10.70;8.40;;;;;;;3.68;100.00;98890.53;6156267;23;20048;-85
2021/12/25 02:31:06;;;;;;;11.20;8.93;;;;;;;3.64;100.00;98895.31;6131088;23;20043;-85
2021/12/25 02:33:32;;;;;;;11.10;8.15;;;;;;;3.63;100.00;98893.00;6132062;23;20504;-85
2021/12/25 02:35:58;;;;;;;12.65;9.60;;;;;;;3.65;100.00;98896.09;6132418;23;20096;-85
2021/12/25 02:38:25;;;;;;;10.73;8.52;;;;;;;3.66;100.00;98895.69;6155593;23;20021;-85
2021/12/25 02:40:51;;;;;;;12.30;8.57;;;;;;;3.59;100.00;98871.13;6132519;23;20437;-85
2021/12/25 02:43:18;;;;;;;12.95;8.90;;;;;;;3.64;100.00;98892.56;6155864;23;20012;-85
2021/12/25 02:45:44;;;;;;;11.65;8.57;;;;;;;3.65;100.00;98902.34;6131309;23;20450;-85
2021/12/25 02:48:11;;;;;;;12.00;9.15;;;;;;;3.68;100.00;98907.00;6157259;23;20015;-85
2021/12/25 02:50:38;;;;;;;12.13;9.60;;;;;;;3.70;100.00;98899.13;6182949;23;20427;-86
2021/12/25 02:53:07;;;;;;;12.18;9.27;;;;;;;3.74;100.00;98894.38;6155684;23;20013;-85
2021/12/25 02:55:34;;;;;;;12.82;9.50;;;;;;;3.75;100.00;98906.88;6157107;23;20117;-85
2021/12/25 02:58:02;;;;;;;13.38;10.93;;;;;;;3.71;100.00;98899.91;6131936;23;20023;-85
2021/12/25 03:00:34;;;;;;;13.07;10.10;;;;;;;3.74;100.00;98899.84;6155917;23;20019;-86
2021/12/25 03:03:01;;;;;;;11.48;9.30;;;;;;;3.86;100.00;98916.88;6154927;23;20055;-86
2021/12/25 03:05:26;;;;;;;12.70;9.60;;;;;;;3.84;100.00;98908.31;6156754;23;20037;-94
2021/12/25 03:07:52;;;;;;;11.82;9.15;;;;;;;3.80;100.00;98902.13;6132967;23;20335;-94
2021/12/25 03:10:19;;;;;;;24.13;18.58;;;;;;;4.03;100.00;98899.34;6157712;23;20012;-92
2021/12/25 03:15:45;;;;;;;15.75;12.27;;;;;;;4.13;100.00;98898.34;6156653;23;20017;-93
2021/12/25 03:18:21;;;;;;;16.05;12.57;;;;;;;4.03;100.00;98905.59;6160004;23;20689;-94
2021/12/25 03:20:51;;;;;;;13.82;11.20;;;;;;;3.97;100.00;98901.00;6157941;23;20013;-94
2021/12/25 03:23:22;;;;;;;13.50;11.13;;;;;;;3.97;100.00;98907.25;6157028;23;20388;-86
2021/12/25 03:25:50;;;;;;;13.80;10.70;;;;;;;4.00;100.00;98900.97;6182808;23;20013;-86
2021/12/25 03:28:17;;;;;;;14.82;11.25;;;;;;;4.00;100.00;98906.44;6157273;23;20021;-85
2021/12/25 03:30:43;;;;;;;14.50;10.95;;;;;;;4.05;100.00;98902.41;6131529;23;20032;-86
2021/12/25 03:33:13;;;;;;;13.23;10.55;;;;;;;3.99;100.00;98891.16;6156392;23;20062;-86
2021/12/25 03:35:39;;;;;;;12.68;10.30;;;;;;;3.99;100.00;98915.88;6155829;23;20577;-85
2021/12/25 03:38:08;;;;;;;13.05;10.20;;;;;;;3.96;100.00;98899.47;6156092;23;20021;-86
2021/12/25 03:40:33;;;;;;;13.15;9.90;;;;;;;3.97;100.00;98917.47;6180524;23;20454;-85
2021/12/25 03:43:00;;;;;;;12.18;9.68;;;;;;;4.01;100.00;98918.16;6183631;23;20009;-92
2021/12/25 03:45:28;;;;;;;12.75;9.95;;;;;;;4.08;100.00;98907.88;6134847;23;20001;-93
2021/12/25 03:48:04;;;;;;;14.32;10.25;;;;;;;4.23;100.00;98909.13;6133986;23;20447;-94
2021/12/25 03:58:32;;;;;;;13.82;10.88;;;;;;;4.30;100.00;98891.75;6136678;23;20048;-85
2021/12/25 04:01:10;;;;;;;12.45;10.18;;;;;;;4.37;100.00;98888.09;6131905;23;20016;-85
2021/12/25 04:03:48;;;;;;;12.27;9.50;;;;;;;4.27;100.00;98881.63;6128455;23;20018;-86
2021/12/25 04:06:14;;;;;;;12.65;9.70;;;;;;;4.22;100.00;98879.34;6150002;23;20014;-85
2021/12/25 04:08:46;;;;;;;12.10;9.48;;;;;;;4.40;100.00;98901.75;6150949;23;20117;-85
2021/12/25 04:11:26;;;;;;;11.73;9.25;;;;;;;4.37;100.00;98894.34;6151782;23;20499;-86
2021/12/25 04:13:52;;;;;;;12.32;9.30;;;;;;;4.44;100.00;98905.19;6151462;23;20045;-85
2021/12/25 04:16:18;;;;;;;11.85;9.73;;;;;;;4.34;100.00;98886.97;6149990;23;20036;-86
2021/12/25 04:18:44;;;;;;;11.15;8.65;;;;;;;4.40;100.00;98901.75;6149776;23;20380;-86
2021/12/25 04:21:10;;;;;;;14.02;9.45;;;;;;;4.45;100.00;98903.97;6149437;23;20038;-86
2021/12/25 04:23:39;;;;;;;11.18;8.93;;;;;;;4.37;100.00;98901.81;6150888;23;20048;-86
2021/12/25 04:26:05;;;;;;;15.35;11.40;;;;;;;4.43;100.00;98897.38;6126057;23;20009;-86
2021/12/25 05:03:54;;;;;;;26.17;19.92;;;;;;;4.48;100.00;98903.16;6133954;23;20468;-85
2021/12/25 05:06:28;;;;;;;21.02;15.95;;;;;;;4.40;100.00;98907.25;6107180;23;20470;-85
2021/12/25 05:08:54;;;;;;;19.02;14.27;;;;;;;4.36;100.00;98909.28;6153149;23;20039;-85
2021/12/25 05:11:20;;;;;;;16.88;12.77;;;;;;;4.20;100.00;98903.72;6127950;23;20372;-85
2021/12/25 05:13:49;;;;;;;17.25;13.45;;;;;;;4.22;100.00;98909.53;6126856;23;20029;-85
2021/12/25 05:16:15;;;;;;;17.13;12.63;;;;;;;4.17;100.00;98896.31;6127433;23;20062;-92
2021/12/25 05:18:41;;;;;;;17.20;13.07;;;;;;;4.15;100.00;98904.97;6151906;23;20017;-84
2021/12/25 05:21:07;;;;;;;16.15;12.32;;;;;;;4.12;100.00;98919.56;6127556;23;20072;-84
2021/12/25 05:23:35;;;;;;;18.83;13.73;;;;;;;4.08;100.00;98926.28;6103740;23;20017;-85
2021/12/25 05:26:00;;;;;;;24.70;18.77;;;;;;;4.04;100.00;98922.84;6128472;23;20005;-85
2021/12/25 05:28:27;;;;;;;19.48;14.70;;;;;;;4.01;100.00;98915.44;6127397;23;20509;-85
2021/12/25 05:30:56;;;;;;;17.45;14.25;;;;;;;4.05;100.00;98921.63;6104761;23;20020;-84
2021/12/25 05:33:25;;;;;;;17.63;14.48;;;;;;;3.98;100.00;98902.56;6154069;23;20511;-85
2021/12/25 05:36:27;;;;;;;16.52;12.85;;;;;;;3.98;100.00;98905.31;6140677;23;20026;-92
2021/12/25 05:39:13;;;;;;;14.75;11.18;;;;;;;3.94;100.00;98912.81;6132158;23;20058;-91
2021/12/25 05:41:42;;;;;;;14.50;11.25;;;;;;;3.91;100.00;98917.19;6129638;23;20049;-91
2021/12/25 05:44:14;;;;;;;12.95;10.40;;;;;;;3.93;100.00;98920.28;6105615;23;20028;-94
2021/12/25 05:46:50;;;;;;;13.60;10.07;;;;;;;3.90;100.00;98923.09;6128624;23;20076;-92
2021/12/25 05:49:17;;;;;;;14.00;10.48;;;;;;;3.88;100.00;98925.47;6104521;23;20407;-91
2021/12/25 05:51:53;;;;;;;13.85;9.98;;;;;;;3.91;100.00;98935.63;6128242;23;20014;-95
2021/12/25 05:54:25;;;;;;;12.47;10.30;;;;;;;3.94;100.00;98924.56;6127177;23;20010;-85
2021/12/25 05:57:09;;;;;;;;;;;;;;;3.93;100.00;98916.75;6155852;23;20252;-92
2021/12/25 05:59:46;;;;;;;12.13;9.57;;;;;;;3.86;100.00;98905.91;6154275;23;19917;-95
2021/12/25 06:02:28;;;;;;;12.00;9.63;;;;;;;3.86;100.00;98931.38;6108127;23;20097;-92
2021/12/25 06:04:54;;;;;;;12.88;9.88;;;;;;;3.85;100.00;98940.78;6153011;23;20056;-91
2021/12/25 06:07:19;;;;;;;12.50;9.13;;;;;;;3.99;100.00;98953.50;6128364;23;20014;-96
2021/12/25 06:09:46;;;;;;;14.10;10.30;;;;;;;4.04;100.00;98950.28;6152812;23;20009;-93
2021/12/25 06:12:14;;;;;;;19.48;14.75;;;;;;;4.05;100.00;98957.28;6153639;23;20017;-87
2021/12/25 06:14:43;;;;;;;17.50;14.38;;;;;;;4.21;100.00;98960.91;6127589;23;20013;-94
2021/12/25 06:17:11;;;;;;;17.05;12.98;;;;;;;4.28;100.00;98976.50;6157653;23;20001;-94
2021/12/25 06:19:50;;;;;;;17.63;14.85;;;;;;;4.24;100.00;98967.56;6157916;23;20013;-94
2021/12/25 06:22:47;;;;;;;15.27;13.23;;;;;;;4.29;100.00;98978.03;6156838;23;20010;-93
2021/12/25 06:25:31;;;;;;;;;;;;;;;4.26;100.00;98984.38;6184312;23;20032;-94
2021/12/25 06:28:17;;;;;;;15.93;12.93;;;;;;;4.17;100.00;98976.69;6183837;23;20219;-94
2021/12/25 06:31:08;;;;;;;16.63;13.50;;;;;;;4.19;100.00;98979.00;6164389;23;20021;-94
2021/12/25 06:33:58;;;;;;;16.20;13.55;;;;;;;4.09;100.00;98991.72;6175578;23;20016;-94
2021/12/25 06:36:53;;;;;;;16.17;13.00;;;;;;;3.90;100.00;98989.69;6103203;23;20690;-95
2021/12/25 06:39:41;;;;;;;17.25;12.95;;;;;;;3.92;100.00;98992.81;6182068;23;20013;-94
2021/12/25 06:42:13;;;;;;;18.67;16.05;;;;;;;4.04;100.00;98991.44;6157886;23;20005;-94
2021/12/25 06:44:42;;;;;;;18.08;14.82;;;;;;;4.03;100.00;98998.13;6133595;23;20056;-93
2021/12/25 06:47:08;;;;;;;16.83;14.40;;;;;;;4.01;100.00;98975.78;6132743;23;20025;-94
2021/12/25 06:49:36;;;;;;;16.65;12.95;;;;;;;3.90;100.00;98994.41;6157926;23;20100;-93
2021/12/25 06:52:14;;;;;;;18.40;14.93;;;;;;;3.85;100.00;98997.63;6192970;23;20016;-87
2021/12/25 06:54:50;;;;;;;18.52;14.00;;;;;;;3.69;100.00;98996.31;6156107;23;20112;-86
2021/12/25 06:57:22;;;;;;;18.67;14.45;;;;;;;3.54;100.00;98994.19;6182595;23;20016;-86
2021/12/25 06:59:47;;;;;;;18.17;13.57;;;;;;;3.45;100.00;98986.50;6155173;23;20017;-87
2021/12/25 07:02:13;;;;;;;21.27;16.08;;;;;;;3.31;100.00;98975.75;6155339;23;20013;-86
2021/12/25 07:04:57;;;;;;;20.05;14.98;;;;;;;3.32;100.00;98985.50;6182042;23;20466;-87
2021/12/25 07:07:50;;;;;;;19.73;14.98;;;;;;;3.28;100.00;98990.25;6165033;23;20017;-87
2021/12/25 07:10:26;;;;;;;37.70;23.33;;;;;;;3.21;100.00;98985.66;6156141;23;20113;-93
2021/12/25 07:12:55;;;;;;;42.60;26.73;;;;;;;3.25;100.00;98986.41;6156208;23;20017;-87
2021/12/25 07:15:35;;;;;;;39.65;25.77;;;;;;;3.28;100.00;98982.03;6155884;23;20067;-86
2021/12/25 07:18:21;;;;;;;40.53;26.15;;;;;;;3.31;100.00;98983.97;6150085;23;20032;-86
2021/12/25 07:21:07;;;;;;;39.03;23.88;;;;;;;3.37;100.00;98979.56;6132775;23;20020;-87
2021/12/25 07:23:40;;;;;;;40.95;29.13;;;;;;;3.60;100.00;98987.06;6155084;23;20017;-87
2021/12/25 07:26:16;;;;;;;36.37;25.83;;;;;;;3.78;100.00;98986.78;6156241;23;20019;-87
2021/12/25 07:29:00;;;;;;;33.53;23.92;;;;;;;3.95;100.00;98999.44;6159683;23;20039;-86
2021/12/25 07:31:25;;;;;;;31.88;22.52;;;;;;;4.06;100.00;98997.28;6181666;23;20514;-86
2021/12/25 07:33:51;;;;;;;24.50;17.80;;;;;;;4.20;100.00;98997.03;6181878;23;20447;-86
2021/12/25 07:36:16;;;;;;;22.23;15.75;;;;;;;4.53;100.00;98985.03;6182990;23;20055;-87
2021/12/25 07:38:42;;;;;;;18.67;14.18;;;;;;;4.71;100.00;98954.47;6153869;23;20656;-86
2021/12/25 07:41:07;;;;;;;17.13;12.57;;;;;;;4.91;100.00;98963.47;6182365;23;20095;-87
2021/12/25 07:43:33;;;;;;;16.55;12.13;;;;;;;5.13;100.00;98969.31;6154537;23;20005;-87
2021/12/25 07:46:00;;;;;;;13.20;11.07;;;;;;;5.19;100.00;98962.09;6180122;23;20015;-85
2021/12/25 07:48:27;;;;;;;14.18;11.30;;;;;;;5.35;100.00;98964.84;6182524;23;20012;-96
2021/12/25 07:50:53;;;;;;;14.15;11.45;;;;;;;5.51;100.00;98972.34;6183059;23;20020;-87
2021/12/25 07:53:18;;;;;;;13.48;10.98;;;;;;;5.57;100.00;98954.16;6155750;23;20005;-87
2021/12/25 07:55:47;;;;;;;15.88;12.93;;;;;;;5.53;100.00;98972.72;6181788;23;20028;-86
2021/12/25 07:58:14;;;;;;;22.38;18.38;;;;;;;5.48;100.00;98979.50;6182887;23;20008;-87
2021/12/25 08:00:40;;;;;;;23.70;20.20;;;;;;;5.43;100.00;98988.25;6182438;23;20039;-87
2021/12/25 08:03:06;;;;;;;18.52;14.63;;;;;;;5.32;100.00;98987.72;6181752;23;20343;-86
2021/12/25 08:05:33;;;;;;;13.57;10.73;;;;;;;5.25;100.00;98978.84;6183169;23;20009;-87
2021/12/25 08:07:58;;;;;;;13.00;10.32;;;;;;;5.18;100.00;98968.03;6184246;23;20068;-95
2021/12/25 08:10:24;;;;;;;13.30;10.07;;;;;;;5.21;100.00;98959.69;6183354;23;20004;-87
2021/12/25 08:12:55;;;;;;;11.52;9.15;;;;;;;5.22;100.00;98954.97;6157015;23;20021;-86
2021/12/25 08:15:23;;;;;;;11.75;9.13;;;;;;;5.26;100.00;98950.91;6182245;23;20017;-87
2021/12/25 08:17:49;;;;;;;12.02;9.50;;;;;;;5.33;100.00;98950.00;6156854;23;20464;-87
2021/12/25 08:20:40;;;;;;;11.25;9.15;;;;;;;5.36;100.00;98938.91;6147561;23;20021;-87
2021/12/25 08:23:25;;;;;;;12.07;9.57;;;;;;;5.46;100.00;98937.88;6182435;23;20457;-87
2021/12/25 08:26:20;;;;;;;11.30;9.20;;;;;;;5.48;100.00;98941.00;6154436;23;20507;-87
2021/12/25 08:29:15;;;;;;;12.25;10.00;;;;;;;5.50;100.00;98949.56;6161722;23;20447;-86
2021/12/25 08:32:19;;;;;;;13.00;10.48;;;;;;;5.57;100.00;98946.66;6100920;23;20499;-87
2021/12/25 08:35:03;;;;;;;19.08;16.02;;;;;;;5.62;100.00;98951.63;6097221;23;20408;-87
2021/12/25 08:37:34;;;;;;;18.88;15.43;;;;;;;5.63;100.00;98958.69;6131438;23;20104;-87
2021/12/25 08:40:00;;;;;;;18.55;15.13;;;;;;;5.57;100.00;98954.94;6154181;23;20491;-87
2021/12/25 08:42:26;;;;;;;17.92;13.95;;;;;;;5.56;100.00;98960.84;6131347;23;20001;-88
2021/12/25 08:45:20;;;;;;;15.15;11.57;;;;;;;5.59;100.00;98974.50;6181372;23;20055;-94
2021/12/25 08:47:40;;;;;;;12.93;10.65;;;;;;;5.57;100.00;98970.66;6181891;23;20025;-94
2021/12/25 08:50:08;;;;;;;16.25;12.40;;;;;;;5.61;100.00;98974.88;6183018;23;20037;-94
2021/12/25 08:52:34;;;;;;;14.50;11.80;;;;;;;5.63;100.00;98958.69;6132312;23;20375;-93
2021/12/25 08:55:00;;;;;;;14.05;11.57;;;;;;;5.71;100.00;98961.25;6182405;23;20023;-94
2021/12/25 08:57:25;;;;;;;14.70;12.60;;;;;;;5.70;100.00;98957.78;6156709;23;20435;-94
2021/12/25 08:59:54;;;;;;;21.23;16.75;;;;;;;5.72;100.00;98954.56;6132033;23;20028;-94
2021/12/25 09:02:20;;;;;;;94.40;67.32;;;;;;;5.79;100.00;98957.13;6181848;23;20412;-92
2021/12/25 09:04:47;;;;;;;56.80;44.47;;;;;;;5.82;100.00;98953.53;6182176;23;20071;-87
2021/12/25 09:07:14;;;;;;;46.13;37.97;;;;;;;5.90;100.00;98955.72;6181903;23;20427;-93
2021/12/25 09:09:40;;;;;;;32.47;28.02;;;;;;;5.96;100.00;98947.69;6155739;23;20017;-93
2021/12/25 09:12:08;;;;;;;20.83;17.45;;;;;;;5.99;100.00;98946.81;6130996;23;20005;-95
2021/12/25 09:14:34;;;;;;;23.63;18.10;;;;;;;6.06;100.00;98946.66;6179504;23;20474;-93
2021/12/25 09:17:00;;;;;;;21.23;18.45;;;;;;;6.15;100.00;98949.56;6181395;23;20009;-93
2021/12/25 09:19:25;;;;;;;20.30;17.38;;;;;;;6.11;100.00;98948.88;6154371;23;20088;-94
2021/12/25 09:21:51;;;;;;;19.75;17.48;;;;;;;6.18;100.00;98943.19;6181672;23;20021;-93
2021/12/25 09:24:16;;;;;;;29.35;23.08;;;;;;;6.25;100.00;98940.25;6155129;23;20017;-94
2021/12/25 09:26:42;;;;;;;30.83;23.65;;;;;;;6.30;100.00;98939.72;6180717;23;20021;-88
2021/12/25 09:29:08;;;;;;;21.30;18.27;;;;;;;6.39;100.00;98936.34;6155550;23;20013;-87
2021/12/25 09:31:35;;;;;;;20.17;16.63;;;;;;;6.42;100.00;98935.47;6129647;23;20029;-88
2021/12/25 09:34:00;;;;;;;17.75;13.45;;;;;;;6.46;100.00;98912.13;6155956;23;20388;-88
2021/12/25 09:36:27;;;;;;;15.93;13.02;;;;;;;6.65;100.00;98926.16;6180526;23;20125;-88
2021/12/25 09:38:53;;;;;;;13.73;11.63;;;;;;;6.78;100.00;98924.22;6181200;23;20013;-87
2021/12/25 09:41:19;;;;;;;13.70;11.25;;;;;;;7.00;100.00;98930.63;6182982;23;20115;-88
2021/12/25 09:43:46;;;;;;;13.57;10.25;;;;;;;7.09;100.00;98928.00;6157168;23;20357;-94
2021/12/25 09:46:12;;;;;;;13.50;10.30;;;;;;;7.26;100.00;98931.44;6184674;23;20009;-94
2021/12/25 09:48:38;;;;;;;12.18;9.23;;;;;;;7.37;100.00;98909.78;6184205;23;20036;-95
2021/12/25 09:51:04;;;;;;;9.63;7.57;;;;;;;7.47;100.00;98919.75;6184534;23;20040;-94
2021/12/25 09:53:31;;;;;;;10.05;7.60;;;;;;;7.55;100.00;98923.03;6156678;23;20398;-93
2021/12/25 09:55:57;;;;;;;10.02;7.05;;;;;;;7.64;100.00;98923.16;6183935;23;20036;-94
2021/12/25 09:58:22;;;;;;;9.70;7.30;;;;;;;7.68;100.00;98921.81;6157491;23;20048;-93
2021/12/25 10:00:51;;;;;;;9.82;7.88;;;;;;;7.73;100.00;98934.25;6157994;23;20075;-95
2021/12/25 10:03:18;;;;;;;8.93;7.53;;;;;;;7.79;100.00;98932.50;6182256;23;20025;-87
2021/12/25 10:05:47;;;;;;;10.32;8.25;;;;;;;7.88;100.00;98932.59;6156060;23;20021;-87
2021/12/25 10:08:15;;;;;;;10.43;8.45;;;;;;;7.92;100.00;98922.19;6182193;23;20025;-88
2021/12/25 10:10:49;;;;;;;9.52;7.47;;;;;;;8.06;100.00;98937.50;6181428;23;20048;-88
2021/12/25 10:13:21;;;;;;;9.20;7.30;;;;;;;8.03;100.00;98922.59;6182246;23;20013;-88
2021/12/25 10:15:47;;;;;;;12.25;7.28;;;;;;;8.08;100.00;98922.03;6154319;23;20057;-87
2021/12/25 10:18:13;;;;;;;8.27;6.95;;;;;;;8.14;100.00;98923.00;6155716;23;20071;-88
2021/12/25 10:20:38;;;;;;;8.02;6.20;;;;;;;8.13;100.00;98915.94;6182741;23;20048;-94
2021/12/25 10:23:14;;;;;;;9.68;6.50;;;;;;;8.19;100.00;98919.69;6183821;23;20642;-93
2021/12/25 10:25:58;;;;;;;7.60;6.45;;;;;;;8.20;100.00;98910.19;6182934;23;20028;-94
2021/12/25 10:28:27;;;;;;;;;;;;;;;8.14;100.00;98906.44;6133136;23;20016;-95
2021/12/25 10:30:59;;;;;;;7.00;5.53;;;;;;;8.27;100.00;98901.63;6183145;23;19916;-94
2021/12/25 10:33:35;;;;;;;7.50;6.07;;;;;;;8.26;99.80;98900.09;6131922;23;20355;-95
2021/12/25 10:36:08;;;;;;;8.23;6.10;;;;;;;8.37;100.00;98902.50;6183370;23;20096;-95
2021/12/25 10:38:34;;;;;;;7.85;5.80;;;;;;;8.49;99.53;98895.38;6182095;23;20019;-94
2021/12/25 10:41:20;;;;;;;6.95;5.53;;;;;;;8.64;98.61;98893.63;6183058;23;20009;-95
2021/12/25 10:43:48;;;;;;;7.63;5.90;;;;;;;8.65;97.21;98900.72;6181178;23;20028;-88
2021/12/25 10:46:14;;;;;;;8.82;6.18;;;;;;;8.64;97.53;98893.63;6155492;23;20059;-87
2021/12/25 10:48:39;;;;;;;7.05;6.05;;;;;;;8.86;97.79;98880.53;6181600;23;20008;-88
2021/12/25 10:51:05;;;;;;;8.23;6.10;;;;;;;9.09;97.56;98884.81;6181812;23;20025;-87
2021/12/25 10:53:43;;;;;;;7.60;6.47;;;;;;;9.18;96.35;98877.28;6180922;23;20016;-88
2021/12/25 10:56:13;;;;;;;7.32;5.40;;;;;;;9.14;94.51;98871.13;6157108;23;20096;-88
2021/12/25 10:58:40;;;;;;;7.05;5.63;;;;;;;9.27;95.12;98877.34;6180572;23;20005;-88
2021/12/25 11:01:07;;;;;;;6.50;5.22;;;;;;;9.29;94.38;98866.59;6155004;23;20017;-88
2021/12/25 11:03:36;;;;;;;7.63;5.57;;;;;;;9.50;93.68;98859.44;6180725;23;20013;-89
2021/12/25 11:06:07;;;;;;;7.97;5.30;;;;;;;9.67;93.47;98857.13;6155815;23;20021;-88
2021/12/25 11:08:33;;;;;;;7.13;5.00;;;;;;;9.60;91.33;98858.22;6181502;23;20013;-87
2021/12/25 11:11:09;;;;;;;5.57;4.63;;;;;;;9.73;91.28;98860.84;6181342;23;20023;-88
2021/12/25 11:13:36;;;;;;;6.90;5.32;;;;;;;9.90;91.12;98844.72;6155500;23;20033;-88
2021/12/25 11:16:22;;;;;;;7.00;5.10;;;;;;;10.16;90.49;98857.81;6181187;23;20013;-88
2021/12/25 11:21:58;;;;;;;6.78;4.80;;;;;;;10.54;86.54;98848.22;6131792;23;20051;-94
2021/12/25 11:24:25;;;;;;;6.35;4.70;;;;;;;10.82;86.34;98855.25;6154358;23;20351;-93
2021/12/25 11:26:57;;;;;;;7.13;4.80;;;;;;;11.06;85.12;98844.97;6181567;23;20021;-93
2021/12/25 11:29:25;;;;;;;6.32;4.97;;;;;;;11.03;84.28;98845.94;6181332;23;20020;-93
2021/12/25 11:31:53;;;;;;;5.70;4.72;;;;;;;11.14;83.51;98837.84;6156561;23;20486;-94
2021/12/25 11:34:20;;;;;;;5.47;4.47;;;;;;;11.23;84.26;98839.81;6155662;23;20001;-94
2021/12/25 11:36:50;;;;;;;5.82;4.90;;;;;;;11.10;83.63;98825.38;6155877;23;20343;-94
2021/12/25 11:39:17;;;;;;;6.57;5.07;;;;;;;10.92;84.09;98820.66;6182577;23;20587;-88
2021/12/25 11:41:44;;;;;;;8.07;5.18;;;;;;;10.94;85.16;98834.84;6181354;23;20009;-89
2021/12/25 11:44:28;;;;;;;10.38;5.63;;;;;;;10.98;85.20;98831.91;6156203;23;20025;-88
2021/12/25 11:46:53;;;;;;;;;;;;;;;11.00;84.55;98827.41;6183284;23;20100;-88
2021/12/25 11:49:19;;;;;;;7.05;5.28;;;;;;;11.02;84.47;98824.19;6182980;23;19950;-88
2021/12/25 11:51:46;;;;;;;6.65;5.32;;;;;;;11.03;84.39;98809.84;6180277;23;20355;-88
2021/12/25 11:59:50;;;;;;;8.00;5.50;;;;;;;11.24;84.13;98808.78;6154671;23;20005;-89
2021/12/25 12:02:41;;;;;;;7.22;5.10;;;;;;;11.16;83.52;98813.16;6180807;23;20009;-89
2021/12/25 12:05:20;;;;;;;6.25;5.20;;;;;;;11.23;84.45;98812.84;6154678;23;20451;-88
2021/12/25 12:08:03;;;;;;;7.72;6.03;;;;;;;11.30;83.89;98811.72;6181094;23;20595;-88
2021/12/25 12:10:49;;;;;;;6.18;5.03;;;;;;;11.49;83.64;98815.91;6181152;23;20028;-88
2021/12/25 12:13:33;;;;;;;6.35;5.10;;;;;;;11.65;83.20;98809.16;6181473;23;20394;-88
2021/12/25 12:16:40;;;;;;;6.45;5.30;;;;;;;11.82;82.11;98815.84;6159986;23;20072;-89
2021/12/25 12:19:41;;;;;;;6.85;5.13;;;;;;;11.94;82.20;98800.94;6137142;23;20013;-89
2021/12/25 12:24:50;;;;;;;6.13;5.03;;;;;;;12.06;81.31;98816.59;6179743;23;20028;-88
2021/12/25 12:27:37;;;;;;;7.55;5.80;;;;;;;11.90;80.25;98808.69;6180382;23;20013;-89
2021/12/25 12:30:11;;;;;;;8.82;6.00;;;;;;;11.69;80.80;98810.53;6153367;23;20017;-88
2021/12/25 12:32:44;;;;;;;6.55;5.47;;;;;;;11.54;81.79;98814.50;6179371;23;20017;-89
2021/12/25 12:35:28;;;;;;;7.55;6.30;;;;;;;11.55;81.93;98799.38;6179202;23;20546;-94
2021/12/25 12:37:53;;;;;;;;;;;;;;;11.58;82.31;98803.97;6154151;23;20075;-93
2021/12/25 12:40:24;;;;;;;10.77;7.78;;;;;;;11.61;82.45;98800.25;6178735;23;19947;-93
2021/12/25 12:42:54;;;;;;;8.82;6.78;;;;;;;11.70;81.90;98806.50;6180043;23;20013;-94
2021/12/25 12:45:24;;;;;;;8.57;6.60;;;;;;;11.74;82.11;98806.34;6152733;23;20024;-92
2021/12/25 12:48:08;;;;;;;8.07;6.47;;;;;;;11.75;82.34;98791.22;6179433;23;20431;-89
2021/12/25 12:50:34;;;;;;;;;;;;;;;11.72;81.80;98805.31;6178549;23;20048;-89
2021/12/25 12:53:02;;;;;;;8.15;6.50;;;;;;;11.65;81.81;98801.59;6129465;23;19909;-93
2021/12/25 12:55:30;;;;;;;7.95;6.75;;;;;;;11.74;82.29;98802.81;6177684;23;20053;-93
2021/12/25 12:58:19;;;;;;;8.30;6.40;;;;;;;11.76;82.29;98800.34;6128275;23;20355;-92
2021/12/25 13:00:48;;;;;;;7.82;6.60;;;;;;;11.81;82.40;98797.66;6153640;23;20021;-93
2021/12/25 13:03:15;;;;;;;7.32;6.20;;;;;;;11.72;81.32;98792.19;6154709;23;20080;-93
2021/12/25 13:05:51;;;;;;;8.48;6.78;;;;;;;11.73;82.10;98788.13;6180477;23;20029;-93
2021/12/25 13:08:27;;;;;;;7.63;6.20;;;;;;;11.75;82.69;98791.22;6181519;23;20017;-92
2021/12/25 13:11:03;;;;;;;8.27;6.60;;;;;;;11.75;82.62;98785.66;6181972;23;20051;-93
2021/12/25 13:13:37;;;;;;;7.75;6.13;;;;;;;11.79;81.84;98791.81;6158507;23;20462;-92
2021/12/25 13:16:09;;;;;;;8.05;6.43;;;;;;;11.75;82.44;98788.44;6157482;23;20055;-88